Main page
METAR-TAF:

METAR-TAF

Airports :

Aurangabad Airport

Aurangabad, India

latitude: 19-51-46N, longitude: 75-23-53E, elevation: 582 m

Current weather observation

The report was made 1 hour and 41 minutes ago, at 18:00 UTC
Calm wind
Temperature 19°C
Humidity 68%
Pressure 1016 hPa
Visibility: 4000 m
Few clouds at a height of 2000 ft
haze

METAR: VAAU 281800Z 00000KT 4000 HZ FEW020 19/13 Q1016 NOSIG

Time: 01:11 (19:41 UTC)

Forecast

The report was made 8 hours and 41 minutes ago, at 11:00 UTC
Forecast valid from 28 at 12 UTC to 28 at 21 UTC
Wind 5 kt from the Northeast
Visibility: 5000 m
Few clouds at a height of 2000 ft
haze, smoke
Becoming
from 28 at 18 UTC to 28 at 20 UTC
Wind 3 kt from variable directions
Visibility: 3000 m
Scattered clouds at a height of 2000 ft
haze

TAF: VAAU 281100Z 2812/2821 05005KT 5000 HZ FU FEW020 BECMG 2818/2820 VRB03KT 3000 HZ SCT020

Weather observations and forecasts of more than 4000 airports (METAR and TAF reports).

The available stations are represented by yellow and red dots on the map.

Hover mouse over dot to see the name of the station.

Then click to see weather observations and forecasts.

To change the map : click on the green buttons with a black cross to zoom in, on the green button with a dash to zoom out, or on the green arrows for adjacent maps.


METAR-TAF: